createdAt,value
2023-02-13T00:05:59.754Z,100.00
2023-02-13T00:16:03.408Z,100.00
2023-02-13T00:26:12.239Z,100.00
2023-02-13T00:36:25.071Z,100.00
2023-02-13T00:46:27.635Z,100.00
2023-02-13T00:56:31.127Z,100.00
2023-02-13T01:06:37.826Z,100.00
2023-02-13T01:16:43.101Z,100.00
2023-02-13T01:26:47.482Z,100.00
2023-02-13T01:36:52.019Z,100.00
2023-02-13T01:46:54.200Z,100.00
2023-02-13T01:57:08.260Z,100.00
2023-02-13T02:07:30.252Z,100.00
2023-02-13T02:17:37.566Z,100.00
2023-02-13T02:28:05.208Z,100.00
2023-02-13T02:38:27.090Z,100.00
2023-02-13T02:48:51.459Z,100.00
2023-02-13T02:59:22.389Z,100.00
2023-02-13T03:09:53.540Z,100.00
2023-02-13T03:20:59.666Z,100.00
2023-02-13T03:31:14.081Z,100.00
2023-02-13T03:41:27.612Z,100.00
2023-02-13T03:51:34.199Z,100.00
2023-02-13T04:01:41.976Z,100.00
2023-02-13T04:11:55.575Z,100.00
2023-02-13T04:22:02.896Z,100.00
2023-02-13T04:32:07.202Z,100.00
2023-02-13T04:42:09.314Z,100.00
2023-02-13T04:52:11.511Z,100.00
2023-02-13T05:02:13.509Z,100.00
2023-02-13T05:12:15.573Z,100.00
2023-02-13T05:22:36.412Z,100.00
2023-02-13T05:32:43.386Z,100.00
2023-02-13T05:42:47.684Z,100.00
2023-02-13T05:52:51.984Z,100.00
2023-02-13T06:02:56.439Z,100.00
2023-02-13T06:12:58.472Z,100.00
2023-02-13T06:23:00.551Z,100.00
2023-02-13T06:33:05.077Z,100.00
2023-02-13T06:43:07.254Z,100.00
2023-02-13T06:53:09.266Z,100.00
2023-02-13T07:03:11.537Z,100.00
2023-02-13T07:13:16.096Z,100.00
2023-02-13T07:23:18.842Z,100.00
2023-02-13T07:33:21.004Z,100.00
2023-02-13T07:43:27.648Z,100.00
2023-02-13T07:53:32.682Z,100.00
2023-02-13T08:03:37.007Z,100.00
2023-02-13T08:13:41.897Z,100.00
2023-02-13T08:23:46.258Z,100.00
2023-02-13T08:33:50.754Z,100.00
2023-02-13T08:43:57.465Z,100.00
2023-02-13T08:54:01.992Z,100.00
2023-02-13T09:04:05.129Z,100.00
2023-02-13T09:14:07.318Z,100.00
2023-02-13T09:24:10.711Z,100.00
2023-02-13T09:34:17.686Z,100.00
2023-02-13T09:44:35.354Z,100.00
2023-02-13T09:54:42.025Z,100.00
2023-02-13T10:05:03.542Z,100.00
2023-02-13T10:15:21.931Z,100.00
2023-02-13T10:25:51.219Z,100.00
2023-02-13T10:36:11.510Z,100.00
2023-02-13T10:46:22.980Z,100.00
2023-02-13T10:56:37.198Z,100.00
2023-02-13T11:06:56.426Z,100.00
2023-02-13T11:17:05.718Z,100.00
2023-02-13T11:27:14.069Z,100.00
2023-02-13T11:37:23.382Z,100.00
2023-02-13T11:47:43.142Z,100.00
2023-02-13T11:57:56.792Z,100.00
2023-02-13T12:08:02.235Z,100.00
2023-02-13T12:18:20.825Z,100.00
2023-02-13T12:28:51.707Z,100.00
2023-02-13T12:38:59.649Z,100.00
2023-02-13T12:49:45.543Z,100.00
2023-02-13T13:00:07.193Z,100.00
2023-02-13T13:10:20.850Z,100.00
2023-02-13T13:20:44.651Z,100.00
2023-02-13T13:30:47.286Z,100.00
2023-02-13T13:41:46.175Z,100.00
2023-02-13T13:51:48.701Z,100.00
2023-02-13T14:02:19.528Z,100.00
2023-02-13T14:12:30.528Z,100.00
2023-02-13T14:22:41.601Z,100.00
2023-02-13T14:32:45.920Z,100.00
2023-02-13T14:43:04.222Z,100.00
2023-02-13T14:53:17.127Z,100.00
2023-02-13T15:03:32.053Z,100.00
2023-02-13T15:13:38.012Z,100.00
2023-02-13T15:23:46.315Z,100.00
2023-02-13T15:33:58.967Z,100.00
2023-02-13T15:44:01.305Z,100.00
2023-02-13T15:54:07.857Z,100.00
2023-02-13T16:04:14.997Z,100.00
2023-02-13T16:14:24.939Z,100.00
2023-02-13T16:24:34.485Z,100.00
2023-02-13T16:34:36.826Z,100.00
2023-02-13T16:44:38.912Z,100.00
2023-02-13T16:55:04.578Z,100.00
2023-02-13T17:05:09.658Z,99.07
2023-02-13T17:15:17.865Z,96.86
2023-02-13T17:25:21.322Z,95.47
2023-02-13T17:35:23.547Z,93.90
2023-02-13T17:45:33.208Z,93.15
2023-02-13T17:55:40.230Z,93.05
2023-02-13T18:05:48.224Z,92.25
2023-02-13T18:15:52.705Z,92.04
2023-02-13T18:25:58.221Z,91.04
2023-02-13T18:36:04.139Z,90.31
2023-02-13T18:46:08.675Z,89.15
2023-02-13T18:56:16.096Z,89.39
2023-02-13T19:06:21.495Z,90.01
2023-02-13T19:16:28.203Z,91.00
2023-02-13T19:26:32.560Z,90.51
2023-02-13T19:36:37.181Z,90.31
2023-02-13T19:46:39.872Z,90.27
2023-02-13T19:56:42.175Z,90.28
2023-02-13T20:06:44.825Z,90.42
2023-02-13T20:16:47.002Z,90.32
2023-02-13T20:26:59.052Z,90.66
2023-02-13T20:37:01.157Z,90.88
2023-02-13T20:47:05.422Z,91.12
2023-02-13T20:57:07.709Z,91.28
2023-02-13T21:07:09.864Z,91.59
2023-02-13T21:17:15.596Z,92.07
2023-02-13T21:27:22.661Z,92.81
2023-02-13T21:37:27.654Z,92.73
2023-02-13T21:47:29.781Z,94.04
2023-02-13T21:57:35.339Z,94.13
2023-02-13T22:07:59.503Z,95.03
2023-02-13T22:18:04.503Z,96.32
2023-02-13T22:28:09.569Z,95.49
2023-02-13T22:38:12.101Z,94.78
2023-02-13T22:48:19.099Z,95.88
2023-02-13T22:58:21.177Z,96.93
2023-02-13T23:08:23.185Z,97.74
2023-02-13T23:18:27.722Z,97.41
2023-02-13T23:28:29.794Z,98.08
2023-02-13T23:38:34.202Z,98.42
2023-02-13T23:48:36.336Z,99.34
2023-02-13T23:58:38.471Z,99.53
